sensor_id;sensor_type;location;lat;lon;timestamp;temperature;humidity
17887;DHT22;9069;52.044;7.472;2024-03-29T00:01:23;11.80;82.50
17887;DHT22;9069;52.044;7.472;2024-03-29T00:03:50;11.80;83.10
17887;DHT22;9069;52.044;7.472;2024-03-29T00:06:16;11.80;83.00
17887;DHT22;9069;52.044;7.472;2024-03-29T00:08:42;11.80;83.10
17887;DHT22;9069;52.044;7.472;2024-03-29T00:11:08;11.80;83.00
17887;DHT22;9069;52.044;7.472;2024-03-29T00:13:33;11.80;82.80
17887;DHT22;9069;52.044;7.472;2024-03-29T00:16:07;11.80;82.70
17887;DHT22;9069;52.044;7.472;2024-03-29T00:18:33;11.70;82.80
17887;DHT22;9069;52.044;7.472;2024-03-29T00:20:58;11.70;82.70
17887;DHT22;9069;52.044;7.472;2024-03-29T00:23:24;11.70;82.70
17887;DHT22;9069;52.044;7.472;2024-03-29T00:25:50;11.70;82.70
17887;DHT22;9069;52.044;7.472;2024-03-29T00:28:17;11.70;82.70
17887;DHT22;9069;52.044;7.472;2024-03-29T00:30:42;11.70;82.70
17887;DHT22;9069;52.044;7.472;2024-03-29T00:33:09;11.60;82.70
17887;DHT22;9069;52.044;7.472;2024-03-29T00:35:35;11.60;82.70
17887;DHT22;9069;52.044;7.472;2024-03-29T00:38:01;11.60;82.70
17887;DHT22;9069;52.044;7.472;2024-03-29T00:40:27;11.60;82.60
17887;DHT22;9069;52.044;7.472;2024-03-29T00:42:53;11.50;82.70
17887;DHT22;9069;52.044;7.472;2024-03-29T00:45:18;11.50;82.70
17887;DHT22;9069;52.044;7.472;2024-03-29T00:47:44;11.50;82.70
17887;DHT22;9069;52.044;7.472;2024-03-29T00:50:10;11.50;82.70
17887;DHT22;9069;52.044;7.472;2024-03-29T00:52:36;11.50;82.70
17887;DHT22;9069;52.044;7.472;2024-03-29T00:55:02;11.50;82.80
17887;DHT22;9069;52.044;7.472;2024-03-29T00:57:29;11.40;82.80
17887;DHT22;9069;52.044;7.472;2024-03-29T00:59:55;11.40;82.80
17887;DHT22;9069;52.044;7.472;2024-03-29T01:02:22;11.40;82.80
17887;DHT22;9069;52.044;7.472;2024-03-29T01:04:49;11.40;82.80
17887;DHT22;9069;52.044;7.472;2024-03-29T01:07:15;11.40;82.80
17887;DHT22;9069;52.044;7.472;2024-03-29T01:09:43;11.40;82.90
17887;DHT22;9069;52.044;7.472;2024-03-29T01:12:09;11.40;83.00
17887;DHT22;9069;52.044;7.472;2024-03-29T01:14:35;11.40;83.10
17887;DHT22;9069;52.044;7.472;2024-03-29T01:17:02;11.40;83.10
17887;DHT22;9069;52.044;7.472;2024-03-29T01:19:28;11.30;82.90
17887;DHT22;9069;52.044;7.472;2024-03-29T01:21:54;11.30;83.10
17887;DHT22;9069;52.044;7.472;2024-03-29T01:24:20;11.30;83.10
17887;DHT22;9069;52.044;7.472;2024-03-29T01:26:46;11.30;83.00
17887;DHT22;9069;52.044;7.472;2024-03-29T01:29:12;11.30;82.90
17887;DHT22;9069;52.044;7.472;2024-03-29T01:31:38;11.30;83.00
17887;DHT22;9069;52.044;7.472;2024-03-29T01:34:04;11.30;82.90
17887;DHT22;9069;52.044;7.472;2024-03-29T01:36:30;11.30;82.80
17887;DHT22;9069;52.044;7.472;2024-03-29T01:38:55;11.30;82.90
17887;DHT22;9069;52.044;7.472;2024-03-29T01:41:26;11.30;82.90
17887;DHT22;9069;52.044;7.472;2024-03-29T01:43:53;11.30;82.90
17887;DHT22;9069;52.044;7.472;2024-03-29T01:46:21;11.30;82.90
17887;DHT22;9069;52.044;7.472;2024-03-29T01:48:47;11.30;83.00
17887;DHT22;9069;52.044;7.472;2024-03-29T01:51:14;11.30;83.00
17887;DHT22;9069;52.044;7.472;2024-03-29T01:53:40;11.30;83.00
17887;DHT22;9069;52.044;7.472;2024-03-29T01:56:07;11.30;83.00
17887;DHT22;9069;52.044;7.472;2024-03-29T01:58:34;11.30;83.00
17887;DHT22;9069;52.044;7.472;2024-03-29T02:01:00;11.30;83.00
17887;DHT22;9069;52.044;7.472;2024-03-29T02:03:30;11.30;83.00
17887;DHT22;9069;52.044;7.472;2024-03-29T02:05:56;11.30;83.00
17887;DHT22;9069;52.044;7.472;2024-03-29T02:08:23;11.30;82.90
17887;DHT22;9069;52.044;7.472;2024-03-29T02:10:49;11.30;82.90
17887;DHT22;9069;52.044;7.472;2024-03-29T02:13:15;11.30;82.90
17887;DHT22;9069;52.044;7.472;2024-03-29T02:15:41;11.30;82.90
17887;DHT22;9069;52.044;7.472;2024-03-29T02:18:08;11.20;82.80
17887;DHT22;9069;52.044;7.472;2024-03-29T02:20:34;11.20;82.80
17887;DHT22;9069;52.044;7.472;2024-03-29T02:23:19;11.30;82.90
17887;DHT22;9069;52.044;7.472;2024-03-29T02:25:45;11.30;82.80
17887;DHT22;9069;52.044;7.472;2024-03-29T02:28:13;11.20;82.80
17887;DHT22;9069;52.044;7.472;2024-03-29T02:30:39;11.30;82.90
17887;DHT22;9069;52.044;7.472;2024-03-29T02:33:05;11.30;82.90
17887;DHT22;9069;52.044;7.472;2024-03-29T02:35:30;11.20;82.90
17887;DHT22;9069;52.044;7.472;2024-03-29T02:37:57;11.30;83.00
17887;DHT22;9069;52.044;7.472;2024-03-29T02:40:22;11.20;83.00
17887;DHT22;9069;52.044;7.472;2024-03-29T02:42:49;11.40;83.90
17887;DHT22;9069;52.044;7.472;2024-03-29T02:45:16;11.20;83.00
17887;DHT22;9069;52.044;7.472;2024-03-29T02:47:42;11.20;83.00
17887;DHT22;9069;52.044;7.472;2024-03-29T02:50:11;11.20;83.00
17887;DHT22;9069;52.044;7.472;2024-03-29T02:52:37;11.20;83.00
17887;DHT22;9069;52.044;7.472;2024-03-29T02:55:03;11.20;83.00
17887;DHT22;9069;52.044;7.472;2024-03-29T02:57:29;11.20;83.10
17887;DHT22;9069;52.044;7.472;2024-03-29T02:59:54;11.20;83.10
17887;DHT22;9069;52.044;7.472;2024-03-29T03:02:20;11.20;83.30
17887;DHT22;9069;52.044;7.472;2024-03-29T03:04:46;11.20;83.30
17887;DHT22;9069;52.044;7.472;2024-03-29T03:07:12;11.20;83.40
17887;DHT22;9069;52.044;7.472;2024-03-29T03:09:57;11.30;83.60
17887;DHT22;9069;52.044;7.472;2024-03-29T03:12:41;11.30;83.70
17887;DHT22;9069;52.044;7.472;2024-03-29T03:15:07;11.30;83.80
17887;DHT22;9069;52.044;7.472;2024-03-29T03:17:33;11.30;83.80
17887;DHT22;9069;52.044;7.472;2024-03-29T03:19:59;11.30;83.80
17887;DHT22;9069;52.044;7.472;2024-03-29T03:22:25;11.20;83.90
17887;DHT22;9069;52.044;7.472;2024-03-29T03:24:51;11.30;84.00
17887;DHT22;9069;52.044;7.472;2024-03-29T03:27:17;11.30;84.00
17887;DHT22;9069;52.044;7.472;2024-03-29T03:29:43;11.30;83.90
17887;DHT22;9069;52.044;7.472;2024-03-29T03:32:09;11.30;83.70
17887;DHT22;9069;52.044;7.472;2024-03-29T03:34:34;11.40;83.60
17887;DHT22;9069;52.044;7.472;2024-03-29T03:37:02;11.30;83.40
17887;DHT22;9069;52.044;7.472;2024-03-29T03:39:28;11.40;83.40
17887;DHT22;9069;52.044;7.472;2024-03-29T03:41:53;11.40;83.50
17887;DHT22;9069;52.044;7.472;2024-03-29T03:44:19;11.40;83.50
17887;DHT22;9069;52.044;7.472;2024-03-29T03:46:47;11.40;83.30
17887;DHT22;9069;52.044;7.472;2024-03-29T03:49:13;11.50;83.30
17887;DHT22;9069;52.044;7.472;2024-03-29T03:51:39;11.90;83.50
17887;DHT22;9069;52.044;7.472;2024-03-29T03:54:05;11.50;83.20
17887;DHT22;9069;52.044;7.472;2024-03-29T03:56:31;11.50;83.10
17887;DHT22;9069;52.044;7.472;2024-03-29T03:58:57;11.50;83.20
17887;DHT22;9069;52.044;7.472;2024-03-29T04:01:23;11.50;82.40
17887;DHT22;9069;52.044;7.472;2024-03-29T04:03:49;11.50;83.10
17887;DHT22;9069;52.044;7.472;2024-03-29T04:06:15;11.60;83.20
17887;DHT22;9069;52.044;7.472;2024-03-29T04:08:43;11.60;83.20
17887;DHT22;9069;52.044;7.472;2024-03-29T04:11:09;11.60;83.10
17887;DHT22;9069;52.044;7.472;2024-03-29T04:13:35;11.60;83.30
17887;DHT22;9069;52.044;7.472;2024-03-29T04:16:07;11.60;83.40
17887;DHT22;9069;52.044;7.472;2024-03-29T04:18:33;11.60;83.80
17887;DHT22;9069;52.044;7.472;2024-03-29T04:21:03;11.70;83.90
17887;DHT22;9069;52.044;7.472;2024-03-29T04:23:31;11.70;83.90
17887;DHT22;9069;52.044;7.472;2024-03-29T04:25:58;11.70;84.10
17887;DHT22;9069;52.044;7.472;2024-03-29T04:28:25;11.70;84.40
17887;DHT22;9069;52.044;7.472;2024-03-29T04:30:58;11.70;84.80
17887;DHT22;9069;52.044;7.472;2024-03-29T04:33:25;11.70;85.00
17887;DHT22;9069;52.044;7.472;2024-03-29T04:35:55;11.80;85.00
17887;DHT22;9069;52.044;7.472;2024-03-29T04:38:21;11.80;85.20
17887;DHT22;9069;52.044;7.472;2024-03-29T04:40:48;11.80;85.40
17887;DHT22;9069;52.044;7.472;2024-03-29T04:43:14;11.80;85.90
17887;DHT22;9069;52.044;7.472;2024-03-29T04:45:40;11.80;85.90
17887;DHT22;9069;52.044;7.472;2024-03-29T04:48:06;11.80;86.10
17887;DHT22;9069;52.044;7.472;2024-03-29T04:50:32;11.80;86.30
17887;DHT22;9069;52.044;7.472;2024-03-29T04:52:58;11.90;86.60
17887;DHT22;9069;52.044;7.472;2024-03-29T04:55:24;11.90;87.10
17887;DHT22;9069;52.044;7.472;2024-03-29T04:57:50;11.90;87.50
17887;DHT22;9069;52.044;7.472;2024-03-29T05:00:16;11.90;87.80
17887;DHT22;9069;52.044;7.472;2024-03-29T05:02:42;11.90;88.10
17887;DHT22;9069;52.044;7.472;2024-03-29T05:05:08;11.90;88.30
17887;DHT22;9069;52.044;7.472;2024-03-29T05:07:34;11.90;88.70
17887;DHT22;9069;52.044;7.472;2024-03-29T05:10:00;11.90;88.80
17887;DHT22;9069;52.044;7.472;2024-03-29T05:12:32;11.90;89.10
17887;DHT22;9069;52.044;7.472;2024-03-29T05:14:58;11.90;89.50
17887;DHT22;9069;52.044;7.472;2024-03-29T05:17:24;11.90;89.80
17887;DHT22;9069;52.044;7.472;2024-03-29T05:19:53;11.90;90.00
17887;DHT22;9069;52.044;7.472;2024-03-29T05:22:19;11.90;90.10
17887;DHT22;9069;52.044;7.472;2024-03-29T05:24:45;11.90;90.30
17887;DHT22;9069;52.044;7.472;2024-03-29T05:27:11;11.90;90.50
17887;DHT22;9069;52.044;7.472;2024-03-29T05:29:37;11.90;90.60
17887;DHT22;9069;52.044;7.472;2024-03-29T05:32:04;11.90;90.60
17887;DHT22;9069;52.044;7.472;2024-03-29T05:34:30;11.80;90.80
17887;DHT22;9069;52.044;7.472;2024-03-29T05:36:57;11.90;90.90
17887;DHT22;9069;52.044;7.472;2024-03-29T05:39:23;11.80;91.00
17887;DHT22;9069;52.044;7.472;2024-03-29T05:41:49;11.80;91.10
17887;DHT22;9069;52.044;7.472;2024-03-29T05:44:14;11.80;91.40
17887;DHT22;9069;52.044;7.472;2024-03-29T05:46:40;11.80;91.50
17887;DHT22;9069;52.044;7.472;2024-03-29T05:49:06;11.70;91.60
17887;DHT22;9069;52.044;7.472;2024-03-29T05:51:33;11.70;91.80
17887;DHT22;9069;52.044;7.472;2024-03-29T05:54:01;11.70;92.00
17887;DHT22;9069;52.044;7.472;2024-03-29T05:56:31;11.70;92.10
17887;DHT22;9069;52.044;7.472;2024-03-29T05:58:57;11.70;92.30
17887;DHT22;9069;52.044;7.472;2024-03-29T06:01:23;11.70;92.60
17887;DHT22;9069;52.044;7.472;2024-03-29T06:03:49;11.60;92.80
17887;DHT22;9069;52.044;7.472;2024-03-29T06:06:20;11.60;93.10
17887;DHT22;9069;52.044;7.472;2024-03-29T06:08:53;11.60;93.30
17887;DHT22;9069;52.044;7.472;2024-03-29T06:11:19;11.60;93.50
17887;DHT22;9069;52.044;7.472;2024-03-29T06:13:44;11.50;93.60
17887;DHT22;9069;52.044;7.472;2024-03-29T06:16:21;11.50;93.80
17887;DHT22;9069;52.044;7.472;2024-03-29T06:19:07;11.50;94.00
17887;DHT22;9069;52.044;7.472;2024-03-29T06:21:33;11.50;94.20
17887;DHT22;9069;52.044;7.472;2024-03-29T06:24:13;11.50;94.40
17887;DHT22;9069;52.044;7.472;2024-03-29T06:26:41;11.50;94.80
17887;DHT22;9069;52.044;7.472;2024-03-29T06:29:07;11.50;94.70
17887;DHT22;9069;52.044;7.472;2024-03-29T06:31:36;11.50;94.90
17887;DHT22;9069;52.044;7.472;2024-03-29T06:34:02;11.40;95.00
17887;DHT22;9069;52.044;7.472;2024-03-29T06:36:29;11.40;95.10
17887;DHT22;9069;52.044;7.472;2024-03-29T06:38:56;11.40;95.20
17887;DHT22;9069;52.044;7.472;2024-03-29T06:41:22;11.40;95.30
17887;DHT22;9069;52.044;7.472;2024-03-29T06:43:48;11.40;95.40
17887;DHT22;9069;52.044;7.472;2024-03-29T06:46:14;11.40;95.50
17887;DHT22;9069;52.044;7.472;2024-03-29T06:48:41;11.40;95.70
17887;DHT22;9069;52.044;7.472;2024-03-29T06:51:07;11.40;95.70
17887;DHT22;9069;52.044;7.472;2024-03-29T06:53:32;11.40;95.90
17887;DHT22;9069;52.044;7.472;2024-03-29T06:56:00;11.40;96.00
17887;DHT22;9069;52.044;7.472;2024-03-29T06:58:29;11.40;96.10
17887;DHT22;9069;52.044;7.472;2024-03-29T07:00:55;11.40;96.10
17887;DHT22;9069;52.044;7.472;2024-03-29T07:03:21;11.40;96.20
17887;DHT22;9069;52.044;7.472;2024-03-29T07:05:47;11.40;96.30
17887;DHT22;9069;52.044;7.472;2024-03-29T07:08:13;11.40;96.40
17887;DHT22;9069;52.044;7.472;2024-03-29T07:10:39;11.40;96.50
17887;DHT22;9069;52.044;7.472;2024-03-29T07:13:07;11.40;96.60
17887;DHT22;9069;52.044;7.472;2024-03-29T07:15:33;11.40;96.70
17887;DHT22;9069;52.044;7.472;2024-03-29T07:18:00;11.50;96.80
17887;DHT22;9069;52.044;7.472;2024-03-29T07:20:29;11.50;96.90
17887;DHT22;9069;52.044;7.472;2024-03-29T07:22:55;11.50;96.90
17887;DHT22;9069;52.044;7.472;2024-03-29T07:25:21;11.50;96.90
17887;DHT22;9069;52.044;7.472;2024-03-29T07:27:48;11.50;96.90
17887;DHT22;9069;52.044;7.472;2024-03-29T07:30:16;11.60;96.90
17887;DHT22;9069;52.044;7.472;2024-03-29T07:32:42;11.60;96.90
17887;DHT22;9069;52.044;7.472;2024-03-29T07:35:07;11.60;96.90
17887;DHT22;9069;52.044;7.472;2024-03-29T07:37:33;11.60;96.90
17887;DHT22;9069;52.044;7.472;2024-03-29T07:39:59;11.60;96.90
17887;DHT22;9069;52.044;7.472;2024-03-29T07:42:25;11.60;96.90
17887;DHT22;9069;52.044;7.472;2024-03-29T07:44:51;11.70;97.00
17887;DHT22;9069;52.044;7.472;2024-03-29T07:47:17;11.60;97.10
17887;DHT22;9069;52.044;7.472;2024-03-29T07:49:43;11.70;97.40
17887;DHT22;9069;52.044;7.472;2024-03-29T07:52:09;11.70;97.50
17887;DHT22;9069;52.044;7.472;2024-03-29T07:54:35;11.80;97.40
17887;DHT22;9069;52.044;7.472;2024-03-29T07:57:02;11.80;97.30
17887;DHT22;9069;52.044;7.472;2024-03-29T07:59:28;11.90;97.20
17887;DHT22;9069;52.044;7.472;2024-03-29T08:01:54;12.00;97.20
17887;DHT22;9069;52.044;7.472;2024-03-29T08:04:21;12.10;97.10
17887;DHT22;9069;52.044;7.472;2024-03-29T08:06:47;12.10;96.90
17887;DHT22;9069;52.044;7.472;2024-03-29T08:09:13;12.20;96.90
17887;DHT22;9069;52.044;7.472;2024-03-29T08:11:42;12.30;97.00
17887;DHT22;9069;52.044;7.472;2024-03-29T08:14:08;12.30;97.00
17887;DHT22;9069;52.044;7.472;2024-03-29T08:16:34;12.40;96.90
17887;DHT22;9069;52.044;7.472;2024-03-29T08:19:00;12.50;96.60
17887;DHT22;9069;52.044;7.472;2024-03-29T08:21:28;12.60;96.50
17887;DHT22;9069;52.044;7.472;2024-03-29T08:23:54;12.70;96.40
17887;DHT22;9069;52.044;7.472;2024-03-29T08:26:24;12.70;96.40
17887;DHT22;9069;52.044;7.472;2024-03-29T08:28:50;12.80;96.40
17887;DHT22;9069;52.044;7.472;2024-03-29T08:31:16;12.90;96.50
17887;DHT22;9069;52.044;7.472;2024-03-29T08:33:42;13.00;97.00
17887;DHT22;9069;52.044;7.472;2024-03-29T08:36:09;13.10;97.20
17887;DHT22;9069;52.044;7.472;2024-03-29T08:38:39;13.30;97.50
17887;DHT22;9069;52.044;7.472;2024-03-29T08:41:08;13.50;97.40
17887;DHT22;9069;52.044;7.472;2024-03-29T08:43:34;13.70;97.40
17887;DHT22;9069;52.044;7.472;2024-03-29T08:46:00;13.80;97.30
17887;DHT22;9069;52.044;7.472;2024-03-29T08:48:31;14.00;97.20
17887;DHT22;9069;52.044;7.472;2024-03-29T08:50:57;14.20;97.10
17887;DHT22;9069;52.044;7.472;2024-03-29T08:53:23;14.40;96.60
17887;DHT22;9069;52.044;7.472;2024-03-29T08:55:48;14.60;96.10
17887;DHT22;9069;52.044;7.472;2024-03-29T08:58:14;14.70;95.80
17887;DHT22;9069;52.044;7.472;2024-03-29T09:00:40;14.80;95.50
17887;DHT22;9069;52.044;7.472;2024-03-29T09:03:09;14.80;95.40
17887;DHT22;9069;52.044;7.472;2024-03-29T09:05:34;14.90;95.30
17887;DHT22;9069;52.044;7.472;2024-03-29T09:08:00;15.00;95.10
17887;DHT22;9069;52.044;7.472;2024-03-29T09:10:27;15.00;95.00
17887;DHT22;9069;52.044;7.472;2024-03-29T09:12:53;15.10;95.10
17887;DHT22;9069;52.044;7.472;2024-03-29T09:15:19;15.10;95.10
17887;DHT22;9069;52.044;7.472;2024-03-29T09:17:48;15.20;95.10
17887;DHT22;9069;52.044;7.472;2024-03-29T09:20:14;15.30;95.20
17887;DHT22;9069;52.044;7.472;2024-03-29T09:22:40;15.30;95.20
17887;DHT22;9069;52.044;7.472;2024-03-29T09:25:07;15.40;95.30
17887;DHT22;9069;52.044;7.472;2024-03-29T09:27:36;15.50;95.30
17887;DHT22;9069;52.044;7.472;2024-03-29T09:30:03;15.60;95.30
17887;DHT22;9069;52.044;7.472;2024-03-29T09:32:31;15.80;94.90
17887;DHT22;9069;52.044;7.472;2024-03-29T09:34:57;15.80;94.60
17887;DHT22;9069;52.044;7.472;2024-03-29T09:37:23;15.90;94.30
17887;DHT22;9069;52.044;7.472;2024-03-29T09:39:53;16.00;94.00
17887;DHT22;9069;52.044;7.472;2024-03-29T09:42:22;16.00;93.70
17887;DHT22;9069;52.044;7.472;2024-03-29T09:44:51;16.00;93.60
17887;DHT22;9069;52.044;7.472;2024-03-29T09:47:17;16.00;93.40
17887;DHT22;9069;52.044;7.472;2024-03-29T09:49:47;16.00;93.30
17887;DHT22;9069;52.044;7.472;2024-03-29T09:52:16;16.00;93.20
17887;DHT22;9069;52.044;7.472;2024-03-29T09:54:42;16.00;93.30
17887;DHT22;9069;52.044;7.472;2024-03-29T09:57:10;16.00;93.40
17887;DHT22;9069;52.044;7.472;2024-03-29T09:59:37;16.00;93.30
17887;DHT22;9069;52.044;7.472;2024-03-29T10:02:14;16.00;93.30
17887;DHT22;9069;52.044;7.472;2024-03-29T10:04:42;15.90;93.20
17887;DHT22;9069;52.044;7.472;2024-03-29T10:07:08;15.90;93.20
17887;DHT22;9069;52.044;7.472;2024-03-29T10:09:36;15.90;93.10
17887;DHT22;9069;52.044;7.472;2024-03-29T10:12:02;15.80;93.10
17887;DHT22;9069;52.044;7.472;2024-03-29T10:14:30;15.80;93.30
17887;DHT22;9069;52.044;7.472;2024-03-29T10:16:59;15.80;93.40
17887;DHT22;9069;52.044;7.472;2024-03-29T10:19:25;15.70;93.30
17887;DHT22;9069;52.044;7.472;2024-03-29T10:21:51;15.70;93.30
17887;DHT22;9069;52.044;7.472;2024-03-29T10:24:18;15.70;93.50
17887;DHT22;9069;52.044;7.472;2024-03-29T10:26:44;15.60;93.40
17887;DHT22;9069;52.044;7.472;2024-03-29T10:29:10;15.60;93.50
17887;DHT22;9069;52.044;7.472;2024-03-29T10:31:36;15.50;93.60
17887;DHT22;9069;52.044;7.472;2024-03-29T10:34:03;15.50;93.90
17887;DHT22;9069;52.044;7.472;2024-03-29T10:36:31;15.50;93.90
17887;DHT22;9069;52.044;7.472;2024-03-29T10:39:09;15.50;93.80
17887;DHT22;9069;52.044;7.472;2024-03-29T10:41:43;15.40;94.10
17887;DHT22;9069;52.044;7.472;2024-03-29T10:44:10;15.40;94.10
17887;DHT22;9069;52.044;7.472;2024-03-29T10:46:40;15.40;94.20
17887;DHT22;9069;52.044;7.472;2024-03-29T10:49:10;15.30;94.30
17887;DHT22;9069;52.044;7.472;2024-03-29T10:51:41;15.30;94.40
17887;DHT22;9069;52.044;7.472;2024-03-29T10:54:11;15.30;94.70
17887;DHT22;9069;52.044;7.472;2024-03-29T10:56:38;15.30;94.80
17887;DHT22;9069;52.044;7.472;2024-03-29T11:01:45;15.40;95.40
17887;DHT22;9069;52.044;7.472;2024-03-29T11:04:21;15.40;95.30
17887;DHT22;9069;52.044;7.472;2024-03-29T11:06:51;15.40;95.60
17887;DHT22;9069;52.044;7.472;2024-03-29T11:09:19;15.50;95.70
17887;DHT22;9069;52.044;7.472;2024-03-29T11:11:48;15.60;95.90
17887;DHT22;9069;52.044;7.472;2024-03-29T11:14:23;15.70;96.30
17887;DHT22;9069;52.044;7.472;2024-03-29T11:16:52;15.70;96.00
17887;DHT22;9069;52.044;7.472;2024-03-29T11:19:23;15.90;96.10
17887;DHT22;9069;52.044;7.472;2024-03-29T11:21:49;16.00;96.10
17887;DHT22;9069;52.044;7.472;2024-03-29T11:24:18;16.10;95.90
17887;DHT22;9069;52.044;7.472;2024-03-29T11:26:45;16.20;95.80
17887;DHT22;9069;52.044;7.472;2024-03-29T11:29:19;16.30;95.90
17887;DHT22;9069;52.044;7.472;2024-03-29T11:31:47;16.50;95.90
17887;DHT22;9069;52.044;7.472;2024-03-29T11:34:18;16.60;95.60
17887;DHT22;9069;52.044;7.472;2024-03-29T11:36:45;16.70;95.20
17887;DHT22;9069;52.044;7.472;2024-03-29T11:39:20;16.80;95.20
17887;DHT22;9069;52.044;7.472;2024-03-29T11:41:50;16.90;94.70
17887;DHT22;9069;52.044;7.472;2024-03-29T11:44:16;17.00;94.70
17887;DHT22;9069;52.044;7.472;2024-03-29T11:46:46;17.10;94.70
17887;DHT22;9069;52.044;7.472;2024-03-29T11:49:13;17.20;94.70
17887;DHT22;9069;52.044;7.472;2024-03-29T11:51:41;17.20;94.50
17887;DHT22;9069;52.044;7.472;2024-03-29T11:54:07;17.30;94.30
17887;DHT22;9069;52.044;7.472;2024-03-29T11:56:33;17.40;94.10
17887;DHT22;9069;52.044;7.472;2024-03-29T11:58:58;17.50;93.80
17887;DHT22;9069;52.044;7.472;2024-03-29T12:01:29;17.50;93.90
17887;DHT22;9069;52.044;7.472;2024-03-29T12:03:55;17.60;93.20
17887;DHT22;9069;52.044;7.472;2024-03-29T12:06:21;17.60;93.30
17887;DHT22;9069;52.044;7.472;2024-03-29T12:08:47;17.70;93.30
17887;DHT22;9069;52.044;7.472;2024-03-29T12:11:14;17.70;93.00
17887;DHT22;9069;52.044;7.472;2024-03-29T12:13:41;17.80;92.80
17887;DHT22;9069;52.044;7.472;2024-03-29T12:16:07;17.80;92.50
17887;DHT22;9069;52.044;7.472;2024-03-29T12:18:33;17.80;92.50
17887;DHT22;9069;52.044;7.472;2024-03-29T12:21:01;17.80;92.30
17887;DHT22;9069;52.044;7.472;2024-03-29T12:23:30;17.80;92.00
17887;DHT22;9069;52.044;7.472;2024-03-29T12:25:58;17.90;91.70
17887;DHT22;9069;52.044;7.472;2024-03-29T12:28:25;17.90;91.90
17887;DHT22;9069;52.044;7.472;2024-03-29T12:30:51;17.90;91.40
17887;DHT22;9069;52.044;7.472;2024-03-29T12:33:19;18.00;91.30
17887;DHT22;9069;52.044;7.472;2024-03-29T12:35:47;17.90;91.10
17887;DHT22;9069;52.044;7.472;2024-03-29T12:38:20;18.00;90.90
17887;DHT22;9069;52.044;7.472;2024-03-29T12:40:48;18.00;90.60
17887;DHT22;9069;52.044;7.472;2024-03-29T12:43:15;18.00;90.40
17887;DHT22;9069;52.044;7.472;2024-03-29T12:45:45;18.00;90.10
17887;DHT22;9069;52.044;7.472;2024-03-29T12:48:13;18.00;90.00
17887;DHT22;9069;52.044;7.472;2024-03-29T12:50:41;18.00;90.00
17887;DHT22;9069;52.044;7.472;2024-03-29T12:53:09;18.00;90.20
17887;DHT22;9069;52.044;7.472;2024-03-29T12:55:35;18.00;90.30
17887;DHT22;9069;52.044;7.472;2024-03-29T12:58:05;18.00;90.30
17887;DHT22;9069;52.044;7.472;2024-03-29T13:00:37;18.00;90.00
17887;DHT22;9069;52.044;7.472;2024-03-29T13:03:03;18.00;89.70
17887;DHT22;9069;52.044;7.472;2024-03-29T13:05:29;18.00;89.50
17887;DHT22;9069;52.044;7.472;2024-03-29T13:08:01;18.00;89.20
17887;DHT22;9069;52.044;7.472;2024-03-29T13:10:29;18.00;89.70
17887;DHT22;9069;52.044;7.472;2024-03-29T13:12:55;18.00;90.00
17887;DHT22;9069;52.044;7.472;2024-03-29T13:15:22;18.00;90.20
17887;DHT22;9069;52.044;7.472;2024-03-29T13:17:52;18.00;90.10
17887;DHT22;9069;52.044;7.472;2024-03-29T13:20:18;18.10;90.50
17887;DHT22;9069;52.044;7.472;2024-03-29T13:22:45;18.10;90.50
17887;DHT22;9069;52.044;7.472;2024-03-29T13:25:15;18.20;90.30
17887;DHT22;9069;52.044;7.472;2024-03-29T13:27:43;18.30;90.10
17887;DHT22;9069;52.044;7.472;2024-03-29T13:30:11;18.30;89.40
17887;DHT22;9069;52.044;7.472;2024-03-29T13:32:39;18.40;89.00
17887;DHT22;9069;52.044;7.472;2024-03-29T13:35:09;18.40;88.30
17887;DHT22;9069;52.044;7.472;2024-03-29T13:37:41;18.40;87.30
17887;DHT22;9069;52.044;7.472;2024-03-29T13:40:14;18.40;86.50
17887;DHT22;9069;52.044;7.472;2024-03-29T13:42:41;18.50;86.70
17887;DHT22;9069;52.044;7.472;2024-03-29T13:45:08;18.50;86.30
17887;DHT22;9069;52.044;7.472;2024-03-29T13:47:43;18.50;86.10
17887;DHT22;9069;52.044;7.472;2024-03-29T13:50:10;18.50;85.70
17887;DHT22;9069;52.044;7.472;2024-03-29T13:52:37;18.50;86.10
17887;DHT22;9069;52.044;7.472;2024-03-29T13:55:04;18.50;86.00
17887;DHT22;9069;52.044;7.472;2024-03-29T13:57:30;18.50;85.80
17887;DHT22;9069;52.044;7.472;2024-03-29T13:59:57;18.50;85.40
17887;DHT22;9069;52.044;7.472;2024-03-29T14:02:24;18.50;85.30
17887;DHT22;9069;52.044;7.472;2024-03-29T14:04:52;18.50;85.50
17887;DHT22;9069;52.044;7.472;2024-03-29T14:07:18;18.50;85.10
17887;DHT22;9069;52.044;7.472;2024-03-29T14:09:44;18.50;84.90
17887;DHT22;9069;52.044;7.472;2024-03-29T14:12:11;18.50;84.50
17887;DHT22;9069;52.044;7.472;2024-03-29T14:14:39;18.50;84.40
17887;DHT22;9069;52.044;7.472;2024-03-29T14:17:05;18.50;84.30
17887;DHT22;9069;52.044;7.472;2024-03-29T14:19:36;18.50;84.30
17887;DHT22;9069;52.044;7.472;2024-03-29T14:22:03;18.50;84.20
17887;DHT22;9069;52.044;7.472;2024-03-29T14:24:32;18.50;84.70
17887;DHT22;9069;52.044;7.472;2024-03-29T14:27:03;18.50;84.70
17887;DHT22;9069;52.044;7.472;2024-03-29T14:29:32;18.50;84.60
17887;DHT22;9069;52.044;7.472;2024-03-29T14:31:59;18.50;84.60
17887;DHT22;9069;52.044;7.472;2024-03-29T14:34:27;18.50;84.20
17887;DHT22;9069;52.044;7.472;2024-03-29T14:36:56;18.50;84.10
17887;DHT22;9069;52.044;7.472;2024-03-29T14:39:22;18.50;84.20
17887;DHT22;9069;52.044;7.472;2024-03-29T14:41:48;18.50;84.20
17887;DHT22;9069;52.044;7.472;2024-03-29T14:44:16;18.50;84.30
17887;DHT22;9069;52.044;7.472;2024-03-29T14:46:44;18.50;84.00
17887;DHT22;9069;52.044;7.472;2024-03-29T14:49:10;18.50;84.30
17887;DHT22;9069;52.044;7.472;2024-03-29T14:51:38;18.50;84.50
17887;DHT22;9069;52.044;7.472;2024-03-29T14:54:04;18.50;84.60
17887;DHT22;9069;52.044;7.472;2024-03-29T14:56:32;18.50;84.40
17887;DHT22;9069;52.044;7.472;2024-03-29T14:59:00;18.50;84.60
17887;DHT22;9069;52.044;7.472;2024-03-29T15:01:27;18.50;84.60
17887;DHT22;9069;52.044;7.472;2024-03-29T15:03:53;18.50;84.70
17887;DHT22;9069;52.044;7.472;2024-03-29T15:06:20;18.50;84.40
17887;DHT22;9069;52.044;7.472;2024-03-29T15:08:53;18.50;83.90
17887;DHT22;9069;52.044;7.472;2024-03-29T15:11:19;18.50;83.40
17887;DHT22;9069;52.044;7.472;2024-03-29T15:13:45;18.50;83.70
17887;DHT22;9069;52.044;7.472;2024-03-29T15:16:11;18.50;83.60
17887;DHT22;9069;52.044;7.472;2024-03-29T15:18:37;18.60;84.40
17887;DHT22;9069;52.044;7.472;2024-03-29T15:21:04;18.50;84.00
17887;DHT22;9069;52.044;7.472;2024-03-29T15:23:31;18.60;83.20
17887;DHT22;9069;52.044;7.472;2024-03-29T15:25:58;18.60;83.00
17887;DHT22;9069;52.044;7.472;2024-03-29T15:28:25;18.60;82.90
17887;DHT22;9069;52.044;7.472;2024-03-29T15:31:18;18.60;83.10
17887;DHT22;9069;52.044;7.472;2024-03-29T15:33:51;18.60;82.70
17887;DHT22;9069;52.044;7.472;2024-03-29T15:36:18;18.60;82.80
17887;DHT22;9069;52.044;7.472;2024-03-29T15:38:44;18.60;82.80
17887;DHT22;9069;52.044;7.472;2024-03-29T15:41:11;18.60;82.90
17887;DHT22;9069;52.044;7.472;2024-03-29T15:43:37;18.50;83.10
17887;DHT22;9069;52.044;7.472;2024-03-29T15:46:05;18.60;83.20
17887;DHT22;9069;52.044;7.472;2024-03-29T15:48:30;18.50;83.10